Spring Lake, Michigan
Current Conditions -  °F | °C
As of 6:55 AM on Thursday 23 Oct 2014 (Local Time) from KMKG Reporting Station
Haze Haze  
Wind Chill: -1°   Ceiling: Unl
Heat Index: -1°   Visibility: 5mi
Dew Point: -2°   Wind: 3mph
Humidity: 89%   Direction: 130°SE
Pressure: 30.25"   Gusts: NA
Location:  43.08°N, 86.2°W
Report Text: KMKG 231055Z 13003KT 5SM BR CLR M01/M02 A3025 RMK AO2 SLP249 I1000 T10061022 $
Loading
Personal Weather Stations






























Interactive Weather Map
Tropical Storm Tracking
New forecast layout! Learn more

10-Day Weather Forecast

Advertisements
Track Severe Weather on mobile